Akiak, Alaska
Current Conditions -  °F | °C
As of 12:56 AM on Monday 26 Jan 2015 (Local Time) from PFKW Reporting Station
Clear Clear  
Wind Chill: -39°   Ceiling: Unl
Heat Index: -27°   Visibility: 10mi
Dew Point: -29°   Wind: 13mph
Humidity: 79%   Direction: 30°NNE
Pressure: 30.01"   Gusts: NA
Location:  60.92°N, 161.23°W
Report Text: PFKW 260956Z AUTO 03011KT 10SM CLR M27/M29 A3001 RMK AO2 SLP162 T12671294 FZRANO
Loading
Personal Weather Stations






























Interactive Weather Map New forecast layout! Learn more

10-Day Weather Forecast

Advertisements
Track Severe Weather on mobile